sensor_id;sensor_type;location;lat;lon;timestamp;pressure;altitude;pressure_sealevel;temperature;humidity
33265;BME280;31404;53.974;-1.086;2022-08-19T00:00:34;100862.72;;;15.41;100.00
33265;BME280;31404;53.974;-1.086;2022-08-19T00:05:35;100859.39;;;15.58;97.63
33265;BME280;31404;53.974;-1.086;2022-08-19T00:10:34;100873.55;;;15.49;98.28
33265;BME280;31404;53.974;-1.086;2022-08-19T00:15:36;100886.18;;;15.68;96.29
33265;BME280;31404;53.974;-1.086;2022-08-19T00:20:35;100897.35;;;17.27;89.00
33265;BME280;31404;53.974;-1.086;2022-08-19T00:25:36;100906.55;;;17.28;87.16
33265;BME280;31404;53.974;-1.086;2022-08-19T00:30:34;100917.38;;;17.42;85.63
33265;BME280;31404;53.974;-1.086;2022-08-19T00:35:35;100931.12;;;18.23;82.78
33265;BME280;31404;53.974;-1.086;2022-08-19T00:45:35;100938.75;;;15.99;90.52
33265;BME280;31404;53.974;-1.086;2022-08-19T00:50:35;100927.75;;;15.61;90.70
33265;BME280;31404;53.974;-1.086;2022-08-19T00:55:35;100928.38;;;16.84;86.27
33265;BME280;31404;53.974;-1.086;2022-08-19T01:00:36;100925.02;;;16.65;87.51
33265;BME280;31404;53.974;-1.086;2022-08-19T01:05:37;100931.68;;;16.26;86.90
33265;BME280;31404;53.974;-1.086;2022-08-19T01:20:36;100943.69;;;14.39;96.95
33265;BME280;31404;53.974;-1.086;2022-08-19T01:30:37;100929.40;;;13.38;100.00
33265;BME280;31404;53.974;-1.086;2022-08-19T01:35:35;100936.30;;;12.77;100.00
33265;BME280;31404;53.974;-1.086;2022-08-19T01:45:36;100932.05;;;14.61;91.36
33265;BME280;31404;53.974;-1.086;2022-08-19T01:55:37;100965.09;;;13.51;91.82
33265;BME280;31404;53.974;-1.086;2022-08-19T02:00:37;100961.29;;;14.30;86.84
33265;BME280;31404;53.974;-1.086;2022-08-19T02:05:35;100962.55;;;14.67;85.46
33265;BME280;31404;53.974;-1.086;2022-08-19T02:15:35;100975.46;;;14.56;85.00
33265;BME280;31404;53.974;-1.086;2022-08-19T02:20:38;100972.52;;;14.92;83.88
33265;BME280;31404;53.974;-1.086;2022-08-19T02:25:36;100980.94;;;14.35;86.36
33265;BME280;31404;53.974;-1.086;2022-08-19T02:30:34;100985.04;;;15.77;79.58
33265;BME280;31404;53.974;-1.086;2022-08-19T02:35:34;100988.23;;;14.41;85.91
33265;BME280;31404;53.974;-1.086;2022-08-19T02:40:35;100996.73;;;13.61;88.83
33265;BME280;31404;53.974;-1.086;2022-08-19T02:45:37;100993.86;;;12.58;95.21
33265;BME280;31404;53.974;-1.086;2022-08-19T02:55:35;101007.21;;;11.56;100.00
33265;BME280;31404;53.974;-1.086;2022-08-19T03:05:34;101013.87;;;13.25;91.21
33265;BME280;31404;53.974;-1.086;2022-08-19T03:25:38;101031.58;;;16.48;75.60
33265;BME280;31404;53.974;-1.086;2022-08-19T03:30:36;101037.11;;;17.49;71.71
33265;BME280;31404;53.974;-1.086;2022-08-19T03:35:35;101045.62;;;16.49;73.60
33265;BME280;31404;53.974;-1.086;2022-08-19T03:40:37;101048.67;;;16.12;75.45
33265;BME280;31404;53.974;-1.086;2022-08-19T03:45:35;101048.65;;;16.97;71.93
33265;BME280;31404;53.974;-1.086;2022-08-19T04:00:35;101070.04;;;17.07;71.18
33265;BME280;31404;53.974;-1.086;2022-08-19T04:05:36;101079.03;;;16.20;73.71
33265;BME280;31404;53.974;-1.086;2022-08-19T04:10:36;101073.70;;;15.90;74.41
33265;BME280;31404;53.974;-1.086;2022-08-19T04:25:38;101078.02;;;16.35;72.67
33265;BME280;31404;53.974;-1.086;2022-08-19T04:35:37;101078.58;;;15.79;73.44
33265;BME280;31404;53.974;-1.086;2022-08-19T04:45:36;101094.52;;;17.16;69.10
33265;BME280;31404;53.974;-1.086;2022-08-19T04:50:34;101109.34;;;16.68;70.28
33265;BME280;31404;53.974;-1.086;2022-08-19T04:55:37;101106.02;;;16.06;73.20
33265;BME280;31404;53.974;-1.086;2022-08-19T05:00:37;101104.30;;;15.40;75.80
33265;BME280;31404;53.974;-1.086;2022-08-19T05:05:29;101111.32;;;14.88;77.52
33265;BME280;31404;53.974;-1.086;2022-08-19T05:10:36;101120.26;;;15.06;75.32
33265;BME280;31404;53.974;-1.086;2022-08-19T05:15:36;101134.09;;;15.20;75.73
33265;BME280;31404;53.974;-1.086;2022-08-19T05:20:34;101130.84;;;15.84;73.86
33265;BME280;31404;53.974;-1.086;2022-08-19T05:25:39;101129.45;;;15.73;74.51
33265;BME280;31404;53.974;-1.086;2022-08-19T05:30:34;101128.09;;;15.99;73.18
33265;BME280;31404;53.974;-1.086;2022-08-19T05:35:36;101134.72;;;15.57;73.87
33265;BME280;31404;53.974;-1.086;2022-08-19T05:40:35;101146.89;;;14.95;76.07
33265;BME280;31404;53.974;-1.086;2022-08-19T05:50:36;101156.17;;;14.21;79.31
33265;BME280;31404;53.974;-1.086;2022-08-19T05:55:36;101159.25;;;14.40;79.64
33265;BME280;31404;53.974;-1.086;2022-08-19T06:00:35;101164.76;;;13.32;83.62
33265;BME280;31404;53.974;-1.086;2022-08-19T06:05:35;101164.17;;;13.51;84.40
33265;BME280;31404;53.974;-1.086;2022-08-19T06:10:35;101165.20;;;14.94;78.39
33265;BME280;31404;53.974;-1.086;2022-08-19T06:15:34;101165.67;;;14.34;80.74
33265;BME280;31404;53.974;-1.086;2022-08-19T06:20:36;101160.31;;;15.49;76.40
33265;BME280;31404;53.974;-1.086;2022-08-19T06:25:35;101159.66;;;14.14;82.15
33265;BME280;31404;53.974;-1.086;2022-08-19T06:30:36;101161.97;;;14.53;80.08
33265;BME280;31404;53.974;-1.086;2022-08-19T06:40:35;101168.32;;;14.54;79.40
33265;BME280;31404;53.974;-1.086;2022-08-19T06:45:37;101169.06;;;14.49;80.77
33265;BME280;31404;53.974;-1.086;2022-08-19T06:50:34;101172.01;;;14.32;81.57
33265;BME280;31404;53.974;-1.086;2022-08-19T06:55:35;101165.85;;;13.29;86.78
33265;BME280;31404;53.974;-1.086;2022-08-19T07:00:34;101166.64;;;13.69;84.01
33265;BME280;31404;53.974;-1.086;2022-08-19T07:10:35;101179.86;;;14.61;80.54
33265;BME280;31404;53.974;-1.086;2022-08-19T07:15:36;101178.71;;;12.61;87.54
33265;BME280;31404;53.974;-1.086;2022-08-19T07:20:34;101181.63;;;13.69;85.42
33265;BME280;31404;53.974;-1.086;2022-08-19T07:25:36;101185.14;;;14.39;81.97
33265;BME280;31404;53.974;-1.086;2022-08-19T07:30:37;101190.70;;;15.17;77.59
33265;BME280;31404;53.974;-1.086;2022-08-19T07:35:35;101196.13;;;14.29;81.32
33265;BME280;31404;53.974;-1.086;2022-08-19T07:40:34;101202.08;;;14.80;79.81
33265;BME280;31404;53.974;-1.086;2022-08-19T07:45:35;101213.26;;;14.12;80.92
33265;BME280;31404;53.974;-1.086;2022-08-19T07:50:36;101215.39;;;13.65;80.40
33265;BME280;31404;53.974;-1.086;2022-08-19T07:55:36;101200.41;;;13.68;79.82
33265;BME280;31404;53.974;-1.086;2022-08-19T08:00:36;101201.56;;;13.07;82.75
33265;BME280;31404;53.974;-1.086;2022-08-19T08:05:36;101208.12;;;12.91;82.28
33265;BME280;31404;53.974;-1.086;2022-08-19T08:10:34;101223.60;;;12.34;83.50
33265;BME280;31404;53.974;-1.086;2022-08-19T08:15:35;101231.94;;;12.45;84.37
33265;BME280;31404;53.974;-1.086;2022-08-19T08:20:35;101241.78;;;12.68;83.60
33265;BME280;31404;53.974;-1.086;2022-08-19T08:30:35;101229.89;;;13.82;77.99
33265;BME280;31404;53.974;-1.086;2022-08-19T08:35:35;101226.70;;;13.60;75.77
33265;BME280;31404;53.974;-1.086;2022-08-19T08:45:38;101224.25;;;13.17;76.32
33265;BME280;31404;53.974;-1.086;2022-08-19T08:55:36;101233.01;;;13.62;76.84
33265;BME280;31404;53.974;-1.086;2022-08-19T09:00:39;101227.27;;;15.13;71.92
33265;BME280;31404;53.974;-1.086;2022-08-19T09:20:34;101232.47;;;14.19;68.92
33265;BME280;31404;53.974;-1.086;2022-08-19T09:25:35;101226.81;;;14.79;68.18
33265;BME280;31404;53.974;-1.086;2022-08-19T09:35:35;101224.17;;;14.55;68.02
33265;BME280;31404;53.974;-1.086;2022-08-19T09:40:35;101227.00;;;13.79;71.96
33265;BME280;31404;53.974;-1.086;2022-08-19T09:45:35;101234.06;;;14.96;69.06
33265;BME280;31404;53.974;-1.086;2022-08-19T09:50:34;101236.86;;;14.27;71.06
33265;BME280;31404;53.974;-1.086;2022-08-19T09:55:34;101243.73;;;13.69;73.47
33265;BME280;31404;53.974;-1.086;2022-08-19T10:05:35;101242.31;;;13.80;69.29
33265;BME280;31404;53.974;-1.086;2022-08-19T10:10:36;101233.51;;;13.68;71.13
33265;BME280;31404;53.974;-1.086;2022-08-19T10:15:36;101230.27;;;14.26;69.26
33265;BME280;31404;53.974;-1.086;2022-08-19T10:20:34;101233.53;;;14.26;69.30
33265;BME280;31404;53.974;-1.086;2022-08-19T10:25:40;101239.62;;;14.06;70.29
33265;BME280;31404;53.974;-1.086;2022-08-19T10:30:36;101236.53;;;15.02;68.21
33265;BME280;31404;53.974;-1.086;2022-08-19T10:35:35;101233.14;;;15.44;66.94
33265;BME280;31404;53.974;-1.086;2022-08-19T10:40:35;101231.00;;;16.71;61.95
33265;BME280;31404;53.974;-1.086;2022-08-19T10:45:35;101232.81;;;15.36;63.81
33265;BME280;31404;53.974;-1.086;2022-08-19T10:50:34;101229.78;;;16.29;61.48
33265;BME280;31404;53.974;-1.086;2022-08-19T10:55:34;101222.47;;;16.84;60.86
33265;BME280;31404;53.974;-1.086;2022-08-19T11:00:35;101230.00;;;15.50;63.41
33265;BME280;31404;53.974;-1.086;2022-08-19T11:05:35;101224.64;;;14.97;65.94
33265;BME280;31404;53.974;-1.086;2022-08-19T11:10:35;101228.79;;;14.72;66.32
33265;BME280;31404;53.974;-1.086;2022-08-19T11:15:36;101227.36;;;15.46;64.41
33265;BME280;31404;53.974;-1.086;2022-08-19T11:20:35;101224.67;;;16.23;62.53
33265;BME280;31404;53.974;-1.086;2022-08-19T11:25:35;101208.25;;;17.41;59.64
33265;BME280;31404;53.974;-1.086;2022-08-19T11:30:37;101208.20;;;17.06;59.51
33265;BME280;31404;53.974;-1.086;2022-08-19T11:40:34;101207.94;;;17.17;58.61
33265;BME280;31404;53.974;-1.086;2022-08-19T11:45:36;101206.65;;;16.46;59.40
33265;BME280;31404;53.974;-1.086;2022-08-19T11:50:36;101202.50;;;16.66;60.02
33265;BME280;31404;53.974;-1.086;2022-08-19T11:55:37;101210.54;;;16.92;58.22
33265;BME280;31404;53.974;-1.086;2022-08-19T12:00:35;101223.91;;;15.47;62.79
33265;BME280;31404;53.974;-1.086;2022-08-19T12:05:36;101222.50;;;15.97;61.63
33265;BME280;31404;53.974;-1.086;2022-08-19T12:10:35;101217.80;;;16.68;60.80
33265;BME280;31404;53.974;-1.086;2022-08-19T12:15:37;101212.15;;;16.86;60.98
33265;BME280;31404;53.974;-1.086;2022-08-19T12:20:36;101218.30;;;15.95;63.19
33265;BME280;31404;53.974;-1.086;2022-08-19T12:25:34;101217.29;;;16.66;61.51
33265;BME280;31404;53.974;-1.086;2022-08-19T12:35:34;101224.98;;;16.63;57.75
33265;BME280;31404;53.974;-1.086;2022-08-19T12:40:35;101218.87;;;16.94;56.52
33265;BME280;31404;53.974;-1.086;2022-08-19T12:45:34;101220.74;;;17.13;55.89
33265;BME280;31404;53.974;-1.086;2022-08-19T12:50:35;101224.63;;;16.83;57.03
33265;BME280;31404;53.974;-1.086;2022-08-19T12:55:35;101228.26;;;16.42;58.45
33265;BME280;31404;53.974;-1.086;2022-08-19T13:00:35;101231.82;;;16.75;61.06
33265;BME280;31404;53.974;-1.086;2022-08-19T13:05:35;101230.07;;;17.36;59.28
33265;BME280;31404;53.974;-1.086;2022-08-19T13:10:37;101232.62;;;17.43;58.91
33265;BME280;31404;53.974;-1.086;2022-08-19T13:15:37;101237.65;;;17.61;55.66
33265;BME280;31404;53.974;-1.086;2022-08-19T13:20:35;101232.63;;;17.15;55.75
33265;BME280;31404;53.974;-1.086;2022-08-19T13:25:35;101226.97;;;17.04;56.04
33265;BME280;31404;53.974;-1.086;2022-08-19T13:30:35;101223.16;;;17.20;55.06
33265;BME280;31404;53.974;-1.086;2022-08-19T13:35:35;101233.70;;;15.57;58.54
33265;BME280;31404;53.974;-1.086;2022-08-19T13:40:35;101236.94;;;16.65;56.51
33265;BME280;31404;53.974;-1.086;2022-08-19T13:45:35;101237.84;;;17.95;54.73
33265;BME280;31404;53.974;-1.086;2022-08-19T13:50:38;101244.32;;;17.69;53.90
33265;BME280;31404;53.974;-1.086;2022-08-19T13:55:40;101243.57;;;17.54;53.64
33265;BME280;31404;53.974;-1.086;2022-08-19T14:00:38;101247.96;;;15.88;57.52
33265;BME280;31404;53.974;-1.086;2022-08-19T14:05:35;101237.81;;;17.24;55.61
33265;BME280;31404;53.974;-1.086;2022-08-19T14:10:35;101242.63;;;17.79;55.54
33265;BME280;31404;53.974;-1.086;2022-08-19T14:15:35;101238.16;;;16.79;58.78
33265;BME280;31404;53.974;-1.086;2022-08-19T14:20:34;101235.07;;;16.63;58.14
33265;BME280;31404;53.974;-1.086;2022-08-19T14:25:35;101238.97;;;15.71;59.56
33265;BME280;31404;53.974;-1.086;2022-08-19T14:30:36;101233.56;;;16.64;57.78
33265;BME280;31404;53.974;-1.086;2022-08-19T14:35:36;101234.69;;;16.93;54.38
33265;BME280;31404;53.974;-1.086;2022-08-19T14:40:34;101237.45;;;17.03;55.44
33265;BME280;31404;53.974;-1.086;2022-08-19T14:45:37;101248.12;;;16.20;57.25
33265;BME280;31404;53.974;-1.086;2022-08-19T14:50:36;101246.98;;;16.76;57.08
33265;BME280;31404;53.974;-1.086;2022-08-19T14:55:35;101258.88;;;15.68;59.31
33265;BME280;31404;53.974;-1.086;2022-08-19T15:00:34;101258.47;;;16.50;57.82
33265;BME280;31404;53.974;-1.086;2022-08-19T15:05:34;101260.25;;;16.29;58.06
33265;BME280;31404;53.974;-1.086;2022-08-19T15:10:34;101260.80;;;16.96;56.21
33265;BME280;31404;53.974;-1.086;2022-08-19T15:15:36;101264.14;;;16.43;57.85
33265;BME280;31404;53.974;-1.086;2022-08-19T15:20:34;101263.26;;;16.61;58.21
33265;BME280;31404;53.974;-1.086;2022-08-19T15:25:34;101260.12;;;17.43;56.33
33265;BME280;31404;53.974;-1.086;2022-08-19T15:30:34;101269.08;;;16.26;59.45
33265;BME280;31404;53.974;-1.086;2022-08-19T15:35:34;101267.58;;;15.91;58.03
33265;BME280;31404;53.974;-1.086;2022-08-19T15:40:34;101262.36;;;15.25;58.82
33265;BME280;31404;53.974;-1.086;2022-08-19T15:45:34;101262.78;;;16.70;56.60
33265;BME280;31404;53.974;-1.086;2022-08-19T15:50:34;101269.72;;;15.95;58.20
33265;BME280;31404;53.974;-1.086;2022-08-19T15:55:40;101274.95;;;14.98;60.65
33265;BME280;31404;53.974;-1.086;2022-08-19T16:00:35;101273.26;;;15.82;59.91
33265;BME280;31404;53.974;-1.086;2022-08-19T16:05:35;101274.38;;;16.22;59.87
33265;BME280;31404;53.974;-1.086;2022-08-19T16:10:34;101272.08;;;14.81;62.80
33265;BME280;31404;53.974;-1.086;2022-08-19T16:15:35;101276.87;;;15.67;60.71
33265;BME280;31404;53.974;-1.086;2022-08-19T16:20:35;101274.01;;;15.80;59.70
33265;BME280;31404;53.974;-1.086;2022-08-19T16:25:34;101284.41;;;15.40;59.93
33265;BME280;31404;53.974;-1.086;2022-08-19T16:30:37;101285.88;;;15.51;59.59
33265;BME280;31404;53.974;-1.086;2022-08-19T16:35:36;101286.43;;;15.05;61.68
33265;BME280;31404;53.974;-1.086;2022-08-19T16:40:34;101282.44;;;15.42;60.75
33265;BME280;31404;53.974;-1.086;2022-08-19T16:45:35;101281.30;;;16.53;59.12
33265;BME280;31404;53.974;-1.086;2022-08-19T16:50:35;101272.88;;;17.86;55.92
33265;BME280;31404;53.974;-1.086;2022-08-19T16:55:34;101283.53;;;16.04;58.49
33265;BME280;31404;53.974;-1.086;2022-08-19T17:00:35;101290.11;;;15.63;60.31
33265;BME280;31404;53.974;-1.086;2022-08-19T17:05:36;101294.22;;;15.27;60.59
33265;BME280;31404;53.974;-1.086;2022-08-19T17:10:34;101297.89;;;15.94;59.55
33265;BME280;31404;53.974;-1.086;2022-08-19T17:15:34;101300.53;;;16.31;57.81
33265;BME280;31404;53.974;-1.086;2022-08-19T17:20:35;101304.14;;;16.09;59.09
33265;BME280;31404;53.974;-1.086;2022-08-19T17:25:35;101303.63;;;16.41;58.85
33265;BME280;31404;53.974;-1.086;2022-08-19T17:30:34;101307.95;;;15.55;60.55
33265;BME280;31404;53.974;-1.086;2022-08-19T17:35:35;101311.61;;;14.76;62.99
33265;BME280;31404;53.974;-1.086;2022-08-19T17:40:35;101320.37;;;14.17;63.76
33265;BME280;31404;53.974;-1.086;2022-08-19T17:45:34;101327.76;;;15.41;61.30
33265;BME280;31404;53.974;-1.086;2022-08-19T17:50:36;101329.25;;;14.94;62.77
33265;BME280;31404;53.974;-1.086;2022-08-19T17:55:35;101332.98;;;14.76;64.27
33265;BME280;31404;53.974;-1.086;2022-08-19T18:00:35;101333.80;;;14.06;66.67
33265;BME280;31404;53.974;-1.086;2022-08-19T18:10:34;101331.55;;;15.72;62.87
33265;BME280;31404;53.974;-1.086;2022-08-19T18:15:35;101335.41;;;15.77;61.99
33265;BME280;31404;53.974;-1.086;2022-08-19T18:20:35;101339.84;;;15.93;62.15
33265;BME280;31404;53.974;-1.086;2022-08-19T18:25:35;101340.31;;;16.16;60.70
33265;BME280;31404;53.974;-1.086;2022-08-19T18:30:35;101347.05;;;16.55;59.85
33265;BME280;31404;53.974;-1.086;2022-08-19T18:35:35;101345.92;;;18.42;55.95
33265;BME280;31404;53.974;-1.086;2022-08-19T18:40:35;101347.48;;;16.92;58.69
33265;BME280;31404;53.974;-1.086;2022-08-19T18:45:35;101350.49;;;16.02;60.65
33265;BME280;31404;53.974;-1.086;2022-08-19T18:50:35;101342.25;;;17.19;57.93
33265;BME280;31404;53.974;-1.086;2022-08-19T18:55:35;101346.21;;;17.77;56.57
33265;BME280;31404;53.974;-1.086;2022-08-19T19:00:35;101351.17;;;17.52;57.66
33265;BME280;31404;53.974;-1.086;2022-08-19T19:05:35;101359.58;;;17.84;56.80
33265;BME280;31404;53.974;-1.086;2022-08-19T19:10:34;101370.52;;;17.54;57.55
33265;BME280;31404;53.974;-1.086;2022-08-19T19:15:34;101379.08;;;17.75;56.93
33265;BME280;31404;53.974;-1.086;2022-08-19T19:20:34;101384.17;;;17.37;57.35
33265;BME280;31404;53.974;-1.086;2022-08-19T19:25:36;101384.49;;;18.78;54.95
33265;BME280;31404;53.974;-1.086;2022-08-19T19:30:35;101385.20;;;18.83;54.66
33265;BME280;31404;53.974;-1.086;2022-08-19T19:35:34;101384.28;;;18.79;54.94
33265;BME280;31404;53.974;-1.086;2022-08-19T19:40:34;101390.17;;;18.57;55.63
33265;BME280;31404;53.974;-1.086;2022-08-19T19:45:34;101396.03;;;19.10;54.73
33265;BME280;31404;53.974;-1.086;2022-08-19T19:50:35;101402.88;;;17.91;56.44
33265;BME280;31404;53.974;-1.086;2022-08-19T19:55:35;101400.64;;;19.11;54.70
33265;BME280;31404;53.974;-1.086;2022-08-19T20:00:34;101401.62;;;19.55;53.77
33265;BME280;31404;53.974;-1.086;2022-08-19T20:05:34;101405.13;;;19.28;54.19
33265;BME280;31404;53.974;-1.086;2022-08-19T20:10:35;101408.83;;;19.24;54.65
33265;BME280;31404;53.974;-1.086;2022-08-19T20:15:37;101407.62;;;20.04;53.06
33265;BME280;31404;53.974;-1.086;2022-08-19T20:20:34;101409.56;;;19.90;53.16
33265;BME280;31404;53.974;-1.086;2022-08-19T20:25:37;101407.24;;;19.80;53.16
33265;BME280;31404;53.974;-1.086;2022-08-19T20:30:35;101405.81;;;20.18;52.37
33265;BME280;31404;53.974;-1.086;2022-08-19T20:35:36;101408.72;;;19.99;52.41
33265;BME280;31404;53.974;-1.086;2022-08-19T20:40:35;101412.21;;;19.88;52.39
33265;BME280;31404;53.974;-1.086;2022-08-19T20:45:35;101413.26;;;19.88;51.93
33265;BME280;31404;53.974;-1.086;2022-08-19T20:50:37;101418.88;;;20.07;51.63
33265;BME280;31404;53.974;-1.086;2022-08-19T20:55:35;101420.36;;;20.79;50.37
33265;BME280;31404;53.974;-1.086;2022-08-19T21:00:34;101416.15;;;20.80;50.26
33265;BME280;31404;53.974;-1.086;2022-08-19T21:05:34;101414.74;;;20.54;50.71
33265;BME280;31404;53.974;-1.086;2022-08-19T21:10:34;101411.40;;;21.03;49.80
33265;BME280;31404;53.974;-1.086;2022-08-19T21:15:34;101409.57;;;20.02;51.47
33265;BME280;31404;53.974;-1.086;2022-08-19T21:20:35;101407.61;;;18.47;54.27
33265;BME280;31404;53.974;-1.086;2022-08-19T21:25:35;101416.94;;;17.62;56.71
33265;BME280;31404;53.974;-1.086;2022-08-19T21:30:35;101420.17;;;18.12;55.95
33265;BME280;31404;53.974;-1.086;2022-08-19T21:35:35;101421.74;;;17.97;56.45
33265;BME280;31404;53.974;-1.086;2022-08-19T21:40:35;101423.28;;;18.20;56.10
33265;BME280;31404;53.974;-1.086;2022-08-19T21:45:36;101424.21;;;18.06;56.73
33265;BME280;31404;53.974;-1.086;2022-08-19T21:50:37;101425.20;;;17.16;58.87
33265;BME280;31404;53.974;-1.086;2022-08-19T21:55:34;101422.57;;;17.13;58.86
33265;BME280;31404;53.974;-1.086;2022-08-19T22:00:34;101417.94;;;18.26;56.69
33265;BME280;31404;53.974;-1.086;2022-08-19T22:05:34;101425.39;;;17.39;58.74
33265;BME280;31404;53.974;-1.086;2022-08-19T22:10:35;101435.40;;;16.41;61.01
33265;BME280;31404;53.974;-1.086;2022-08-19T22:15:34;101432.28;;;17.21;59.72
33265;BME280;31404;53.974;-1.086;2022-08-19T22:20:36;101433.49;;;16.49;61.88
33265;BME280;31404;53.974;-1.086;2022-08-19T22:25:37;101430.77;;;16.53;61.74
33265;BME280;31404;53.974;-1.086;2022-08-19T22:30:37;101414.14;;;16.77;61.95
33265;BME280;31404;53.974;-1.086;2022-08-19T22:40:37;101424.19;;;16.93;61.00
33265;BME280;31404;53.974;-1.086;2022-08-19T22:45:35;101421.55;;;17.07;61.02
33265;BME280;31404;53.974;-1.086;2022-08-19T22:50:36;101411.72;;;17.50;60.21
33265;BME280;31404;53.974;-1.086;2022-08-19T22:55:36;101412.68;;;17.61;59.95
33265;BME280;31404;53.974;-1.086;2022-08-19T23:00:36;101417.33;;;17.60;59.50
33265;BME280;31404;53.974;-1.086;2022-08-19T23:05:35;101419.08;;;17.37;60.50
33265;BME280;31404;53.974;-1.086;2022-08-19T23:10:35;101425.78;;;16.45;62.93
33265;BME280;31404;53.974;-1.086;2022-08-19T23:15:35;101418.48;;;17.13;61.13
33265;BME280;31404;53.974;-1.086;2022-08-19T23:20:37;101420.95;;;17.31;60.74
33265;BME280;31404;53.974;-1.086;2022-08-19T23:25:36;101419.14;;;18.08;58.85
33265;BME280;31404;53.974;-1.086;2022-08-19T23:30:38;101426.74;;;17.40;60.49
33265;BME280;31404;53.974;-1.086;2022-08-19T23:35:36;101428.24;;;16.54;62.79
33265;BME280;31404;53.974;-1.086;2022-08-19T23:40:37;101423.67;;;15.13;67.55
33265;BME280;31404;53.974;-1.086;2022-08-19T23:45:37;101425.63;;;14.54;69.07
33265;BME280;31404;53.974;-1.086;2022-08-19T23:50:35;101417.97;;;14.65;69.41
33265;BME280;31404;53.974;-1.086;2022-08-19T23:55:37;101412.79;;;15.07;68.47
